sensor_id;sensor_type;location;lat;lon;timestamp;pressure;altitude;pressure_sealevel;temperature
67515;BMP280;60646;55.802;37.032;2023-03-03T00:02:20;98258.19;;;4.99
67515;BMP280;60646;55.802;37.032;2023-03-03T00:04:46;98263.47;;;5.05
67515;BMP280;60646;55.802;37.032;2023-03-03T00:07:11;98283.03;;;5.18
67515;BMP280;60646;55.802;37.032;2023-03-03T00:09:39;98288.09;;;5.22
67515;BMP280;60646;55.802;37.032;2023-03-03T00:12:20;98282.59;;;5.26
67515;BMP280;60646;55.802;37.032;2023-03-03T00:14:47;98275.09;;;5.18
67515;BMP280;60646;55.802;37.032;2023-03-03T00:17:27;98263.03;;;5.12
67515;BMP280;60646;55.802;37.032;2023-03-03T00:19:53;98281.38;;;5.27
67515;BMP280;60646;55.802;37.032;2023-03-03T00:22:29;98282.34;;;5.29
67515;BMP280;60646;55.802;37.032;2023-03-03T00:24:59;98262.81;;;5.15
67515;BMP280;60646;55.802;37.032;2023-03-03T00:27:29;98271.06;;;5.29
67515;BMP280;60646;55.802;37.032;2023-03-03T00:29:58;98278.53;;;5.30
67515;BMP280;60646;55.802;37.032;2023-03-03T00:32:43;98260.97;;;5.33
67515;BMP280;60646;55.802;37.032;2023-03-03T00:37:46;98253.47;;;5.26
67515;BMP280;60646;55.802;37.032;2023-03-03T00:40:25;98241.66;;;5.27
67515;BMP280;60646;55.802;37.032;2023-03-03T00:42:54;98261.47;;;5.37
67515;BMP280;60646;55.802;37.032;2023-03-03T00:45:30;98254.50;;;5.39
67515;BMP280;60646;55.802;37.032;2023-03-03T00:47:57;98213.72;;;5.14
67515;BMP280;60646;55.802;37.032;2023-03-03T00:53:19;98238.13;;;5.41
67515;BMP280;60646;55.802;37.032;2023-03-03T00:55:45;98238.38;;;5.43
67515;BMP280;60646;55.802;37.032;2023-03-03T00:58:12;98221.03;;;5.31
67515;BMP280;60646;55.802;37.032;2023-03-03T01:00:42;98211.88;;;5.32
67515;BMP280;60646;55.802;37.032;2023-03-03T01:03:16;98206.59;;;5.37
67515;BMP280;60646;55.802;37.032;2023-03-03T01:05:43;98191.41;;;5.21
67515;BMP280;60646;55.802;37.032;2023-03-03T01:08:09;98226.81;;;5.46
67515;BMP280;60646;55.802;37.032;2023-03-03T01:10:40;98206.56;;;5.32
67515;BMP280;60646;55.802;37.032;2023-03-03T01:13:06;98213.59;;;5.46
67515;BMP280;60646;55.802;37.032;2023-03-03T01:15:32;98198.91;;;5.34
67515;BMP280;60646;55.802;37.032;2023-03-03T01:17:58;98198.91;;;5.34
67515;BMP280;60646;55.802;37.032;2023-03-03T01:20:24;98202.78;;;5.44
67515;BMP280;60646;55.802;37.032;2023-03-03T01:22:49;98190.22;;;5.33
67515;BMP280;60646;55.802;37.032;2023-03-03T01:25:15;98188.31;;;5.34
67515;BMP280;60646;55.802;37.032;2023-03-03T01:27:41;98203.22;;;5.37
67515;BMP280;60646;55.802;37.032;2023-03-03T01:30:07;98203.50;;;5.39
67515;BMP280;60646;55.802;37.032;2023-03-03T01:32:33;98194.78;;;5.33
67515;BMP280;60646;55.802;37.032;2023-03-03T01:34:59;98195.06;;;5.35
67515;BMP280;60646;55.802;37.032;2023-03-03T01:37:25;98197.94;;;5.37
67515;BMP280;60646;55.802;37.032;2023-03-03T01:39:54;98212.91;;;5.51
67515;BMP280;60646;55.802;37.032;2023-03-03T01:42:39;98199.84;;;5.42
67515;BMP280;60646;55.802;37.032;2023-03-03T01:45:18;98211.94;;;5.48
67515;BMP280;60646;55.802;37.032;2023-03-03T01:48:03;98206.63;;;5.54
67515;BMP280;60646;55.802;37.032;2023-03-03T01:52:58;98182.31;;;5.39
67515;BMP280;60646;55.802;37.032;2023-03-03T01:55:31;98178.22;;;5.38
67515;BMP280;60646;55.802;37.032;2023-03-03T01:58:47;98178.72;;;5.47
67515;BMP280;60646;55.802;37.032;2023-03-03T02:00:50;98197.97;;;5.59
67515;BMP280;60646;55.802;37.032;2023-03-03T02:03:18;98168.59;;;5.46
67515;BMP280;60646;55.802;37.032;2023-03-03T02:05:45;98174.63;;;5.57
67515;BMP280;60646;55.802;37.032;2023-03-03T02:08:15;98159.94;;;5.51
67515;BMP280;60646;55.802;37.032;2023-03-03T02:10:43;98172.25;;;5.65
67515;BMP280;60646;55.802;37.032;2023-03-03T02:13:10;98170.06;;;5.58
67515;BMP280;60646;55.802;37.032;2023-03-03T02:15:36;98181.16;;;5.62
67515;BMP280;60646;55.802;37.032;2023-03-03T02:18:05;98172.72;;;5.63
67515;BMP280;60646;55.802;37.032;2023-03-03T02:28:36;98126.72;;;5.50
67515;BMP280;60646;55.802;37.032;2023-03-03T02:31:09;98128.91;;;5.51
67515;BMP280;60646;55.802;37.032;2023-03-03T02:33:47;98150.34;;;5.70
67515;BMP280;60646;55.802;37.032;2023-03-03T02:36:16;98126.25;;;5.57
67515;BMP280;60646;55.802;37.032;2023-03-03T02:38:50;98141.22;;;5.71
67515;BMP280;60646;55.802;37.032;2023-03-03T02:44:28;98113.72;;;5.63
67515;BMP280;60646;55.802;37.032;2023-03-03T02:46:55;98128.91;;;5.73
67515;BMP280;60646;55.802;37.032;2023-03-03T02:49:26;98136.38;;;5.75
67515;BMP280;60646;55.802;37.032;2023-03-03T02:51:52;98099.75;;;5.57
67515;BMP280;60646;55.802;37.032;2023-03-03T02:54:20;98131.81;;;5.76
67515;BMP280;60646;55.802;37.032;2023-03-03T02:56:46;98094.75;;;5.53
67515;BMP280;60646;55.802;37.032;2023-03-03T02:59:12;98123.88;;;5.70
67515;BMP280;60646;55.802;37.032;2023-03-03T03:01:43;98114.22;;;5.61
67515;BMP280;60646;55.802;37.032;2023-03-03T03:04:15;98137.81;;;5.76
67515;BMP280;60646;55.802;37.032;2023-03-03T03:06:44;98137.09;;;5.76
67515;BMP280;60646;55.802;37.032;2023-03-03T03:09:13;98099.31;;;5.53
67515;BMP280;60646;55.802;37.032;2023-03-03T03:11:39;98109.88;;;5.64
67515;BMP280;60646;55.802;37.032;2023-03-03T03:14:07;98121.94;;;5.76
67515;BMP280;60646;55.802;37.032;2023-03-03T03:16:34;98107.50;;;5.66
67515;BMP280;60646;55.802;37.032;2023-03-03T03:19:00;98124.31;;;5.74
67515;BMP280;60646;55.802;37.032;2023-03-03T03:21:27;98117.56;;;5.73
67515;BMP280;60646;55.802;37.032;2023-03-03T03:23:54;98104.59;;;5.64
67515;BMP280;60646;55.802;37.032;2023-03-03T03:26:20;98100.25;;;5.61
67515;BMP280;60646;55.802;37.032;2023-03-03T03:28:48;98094.22;;;5.60
67515;BMP280;60646;55.802;37.032;2023-03-03T03:31:15;98111.81;;;5.69
67515;BMP280;60646;55.802;37.032;2023-03-03T03:33:41;98080.75;;;5.47
67515;BMP280;60646;55.802;37.032;2023-03-03T03:36:07;98103.38;;;5.65
67515;BMP280;60646;55.802;37.032;2023-03-03T03:38:34;98110.34;;;5.73
67515;BMP280;60646;55.802;37.032;2023-03-03T03:41:03;98080.28;;;5.49
67515;BMP280;60646;55.802;37.032;2023-03-03T03:43:29;98079.06;;;5.50
67515;BMP280;60646;55.802;37.032;2023-03-03T03:45:56;98089.66;;;5.61
67515;BMP280;60646;55.802;37.032;2023-03-03T03:48:23;98078.84;;;5.53
67515;BMP280;60646;55.802;37.032;2023-03-03T03:50:49;98098.56;;;5.63
67515;BMP280;60646;55.802;37.032;2023-03-03T03:53:16;98079.56;;;5.54
67515;BMP280;60646;55.802;37.032;2023-03-03T03:55:43;98095.94;;;5.69
67515;BMP280;60646;55.802;37.032;2023-03-03T03:58:13;98095.94;;;5.69
67515;BMP280;60646;55.802;37.032;2023-03-03T04:00:40;98040.56;;;5.32
67515;BMP280;60646;55.802;37.032;2023-03-03T04:03:07;98060.53;;;5.50
67515;BMP280;60646;55.802;37.032;2023-03-03T04:05:33;98067.28;;;5.56
67515;BMP280;60646;55.802;37.032;2023-03-03T04:08:00;98050.44;;;5.43
67515;BMP280;60646;55.802;37.032;2023-03-03T04:10:26;98060.78;;;5.52
67515;BMP280;60646;55.802;37.032;2023-03-03T04:12:52;98079.06;;;5.61
67515;BMP280;60646;55.802;37.032;2023-03-03T04:15:19;98051.41;;;5.40
67515;BMP280;60646;55.802;37.032;2023-03-03T04:17:46;98050.44;;;5.37
67515;BMP280;60646;55.802;37.032;2023-03-03T04:20:13;98087.97;;;5.63
67515;BMP280;60646;55.802;37.032;2023-03-03T04:22:42;98069.44;;;5.47
67515;BMP280;60646;55.802;37.032;2023-03-03T04:25:13;98060.75;;;5.41
67515;BMP280;60646;55.802;37.032;2023-03-03T04:27:40;98066.53;;;5.45
67515;BMP280;60646;55.802;37.032;2023-03-03T04:30:09;98090.63;;;5.58
67515;BMP280;60646;55.802;37.032;2023-03-03T04:32:36;98069.91;;;5.45
67515;BMP280;60646;55.802;37.032;2023-03-03T04:35:05;98068.00;;;5.40
67515;BMP280;60646;55.802;37.032;2023-03-03T04:37:32;98056.69;;;5.34
67515;BMP280;60646;55.802;37.032;2023-03-03T04:39:58;98059.56;;;5.36
67515;BMP280;60646;55.802;37.032;2023-03-03T04:42:24;98089.44;;;5.53
67515;BMP280;60646;55.802;37.032;2023-03-03T04:44:53;98078.09;;;5.42
67515;BMP280;60646;55.802;37.032;2023-03-03T04:47:18;98067.03;;;5.38
67515;BMP280;60646;55.802;37.032;2023-03-03T04:49:44;98084.38;;;5.50
67515;BMP280;60646;55.802;37.032;2023-03-03T04:52:10;98057.88;;;5.33
67515;BMP280;60646;55.802;37.032;2023-03-03T04:54:37;98078.84;;;5.48
67515;BMP280;60646;55.802;37.032;2023-03-03T04:57:03;98073.78;;;5.39
67515;BMP280;60646;55.802;37.032;2023-03-03T04:59:29;98070.88;;;5.37
67515;BMP280;60646;55.802;37.032;2023-03-03T05:01:54;98066.06;;;5.30
67515;BMP280;60646;55.802;37.032;2023-03-03T05:07:22;98068.00;;;5.35
67515;BMP280;60646;55.802;37.032;2023-03-03T05:09:48;98078.81;;;5.37
67515;BMP280;60646;55.802;37.032;2023-03-03T05:12:14;98069.66;;;5.32
67515;BMP280;60646;55.802;37.032;2023-03-03T05:14:41;98057.38;;;5.18
67515;BMP280;60646;55.802;37.032;2023-03-03T05:17:07;98084.81;;;5.32
67515;BMP280;60646;55.802;37.032;2023-03-03T05:19:33;98099.75;;;5.46
67515;BMP280;60646;55.802;37.032;2023-03-03T05:22:00;98103.84;;;5.47
67515;BMP280;60646;55.802;37.032;2023-03-03T05:24:26;98084.63;;;5.35
67515;BMP280;60646;55.802;37.032;2023-03-03T05:26:52;98083.63;;;5.33
67515;BMP280;60646;55.802;37.032;2023-03-03T05:29:18;98090.59;;;5.36
67515;BMP280;60646;55.802;37.032;2023-03-03T05:31:44;98083.59;;;5.27
67515;BMP280;60646;55.802;37.032;2023-03-03T05:34:10;98101.22;;;5.47
67515;BMP280;60646;55.802;37.032;2023-03-03T05:36:36;98081.72;;;5.33
67515;BMP280;60646;55.802;37.032;2023-03-03T05:39:01;98084.84;;;5.43
67515;BMP280;60646;55.802;37.032;2023-03-03T05:42:01;98106.03;;;5.54
67515;BMP280;60646;55.802;37.032;2023-03-03T05:44:53;98077.88;;;5.34
67515;BMP280;60646;55.802;37.032;2023-03-03T05:47:19;98086.53;;;5.35
67515;BMP280;60646;55.802;37.032;2023-03-03T05:49:45;98088.22;;;5.38
67515;BMP280;60646;55.802;37.032;2023-03-03T05:52:11;98103.59;;;5.45
67515;BMP280;60646;55.802;37.032;2023-03-03T05:54:36;98085.31;;;5.36
67515;BMP280;60646;55.802;37.032;2023-03-03T05:57:02;98097.84;;;5.46
67515;BMP280;60646;55.802;37.032;2023-03-03T05:59:31;98074.97;;;5.32
67515;BMP280;60646;55.802;37.032;2023-03-03T06:01:56;98096.88;;;5.44
67515;BMP280;60646;55.802;37.032;2023-03-03T06:04:22;98100.25;;;5.55
67515;BMP280;60646;55.802;37.032;2023-03-03T06:06:48;98085.81;;;5.40
67515;BMP280;60646;55.802;37.032;2023-03-03T06:09:14;98088.22;;;5.49
67515;BMP280;60646;55.802;37.032;2023-03-03T06:11:40;98098.31;;;5.56
67515;BMP280;60646;55.802;37.032;2023-03-03T06:14:05;98083.16;;;5.51
67515;BMP280;60646;55.802;37.032;2023-03-03T06:16:32;98082.44;;;5.56
67515;BMP280;60646;55.802;37.032;2023-03-03T06:18:58;98087.25;;;5.63
67515;BMP280;60646;55.802;37.032;2023-03-03T06:21:24;98106.28;;;5.78
67515;BMP280;60646;55.802;37.032;2023-03-03T06:24:02;98100.75;;;5.76
67515;BMP280;60646;55.802;37.032;2023-03-03T06:26:30;98110.13;;;5.83
67515;BMP280;60646;55.802;37.032;2023-03-03T06:28:59;98116.16;;;5.83
67515;BMP280;60646;55.802;37.032;2023-03-03T06:31:25;98081.47;;;5.64
67515;BMP280;60646;55.802;37.032;2023-03-03T06:33:54;98093.25;;;5.75
67515;BMP280;60646;55.802;37.032;2023-03-03T06:36:20;98077.38;;;5.63
67515;BMP280;60646;55.802;37.032;2023-03-03T06:38:45;98087.97;;;5.69
67515;BMP280;60646;55.802;37.032;2023-03-03T06:41:11;98088.69;;;5.75
67515;BMP280;60646;55.802;37.032;2023-03-03T06:43:37;98086.53;;;5.79
67515;BMP280;60646;55.802;37.032;2023-03-03T06:46:03;98110.59;;;5.92
67515;BMP280;60646;55.802;37.032;2023-03-03T06:48:31;98105.81;;;5.85
67515;BMP280;60646;55.802;37.032;2023-03-03T06:50:58;98090.16;;;5.76
67515;BMP280;60646;55.802;37.032;2023-03-03T06:53:24;98110.34;;;5.90
67515;BMP280;60646;55.802;37.032;2023-03-03T06:55:50;98103.88;;;5.86
67515;BMP280;60646;55.802;37.032;2023-03-03T06:58:18;98105.56;;;5.94
67515;BMP280;60646;55.802;37.032;2023-03-03T07:00:52;98127.19;;;6.04
67515;BMP280;60646;55.802;37.032;2023-03-03T07:03:33;98121.41;;;6.05
67515;BMP280;60646;55.802;37.032;2023-03-03T07:06:12;98113.97;;;5.98
67515;BMP280;60646;55.802;37.032;2023-03-03T07:08:39;98103.13;;;5.91
67515;BMP280;60646;55.802;37.032;2023-03-03T07:11:11;98105.53;;;5.89
67515;BMP280;60646;55.802;37.032;2023-03-03T07:13:42;98123.84;;;6.03
67515;BMP280;60646;55.802;37.032;2023-03-03T07:16:11;98127.69;;;6.08
67515;BMP280;60646;55.802;37.032;2023-03-03T07:18:47;98135.41;;;6.11
67515;BMP280;60646;55.802;37.032;2023-03-03T07:21:18;98122.16;;;6.00
67515;BMP280;60646;55.802;37.032;2023-03-03T07:23:45;98129.09;;;6.14
67515;BMP280;60646;55.802;37.032;2023-03-03T07:26:15;98126.25;;;6.12
67515;BMP280;60646;55.802;37.032;2023-03-03T07:28:43;98135.88;;;6.21
67515;BMP280;60646;55.802;37.032;2023-03-03T07:33:54;98137.06;;;6.26
67515;BMP280;60646;55.802;37.032;2023-03-03T07:36:29;98122.81;;;6.17
67515;BMP280;60646;55.802;37.032;2023-03-03T07:39:00;98143.31;;;6.34
67515;BMP280;60646;55.802;37.032;2023-03-03T07:41:27;98133.41;;;6.29
67515;BMP280;60646;55.802;37.032;2023-03-03T07:44:21;98122.81;;;6.29
67515;BMP280;60646;55.802;37.032;2023-03-03T07:46:49;98141.84;;;6.38
67515;BMP280;60646;55.802;37.032;2023-03-03T07:49:35;98139.91;;;6.44
67515;BMP280;60646;55.802;37.032;2023-03-03T07:52:17;98113.66;;;6.30
67515;BMP280;60646;55.802;37.032;2023-03-03T07:54:45;98127.41;;;6.39
67515;BMP280;60646;55.802;37.032;2023-03-03T07:59:48;98141.06;;;6.60
67515;BMP280;60646;55.802;37.032;2023-03-03T08:04:53;98139.13;;;6.66
67515;BMP280;60646;55.802;37.032;2023-03-03T08:07:21;98139.56;;;6.70
67515;BMP280;60646;55.802;37.032;2023-03-03T08:10:00;98134.25;;;6.70
67515;BMP280;60646;55.802;37.032;2023-03-03T08:12:41;98146.56;;;6.73
67515;BMP280;60646;55.802;37.032;2023-03-03T08:15:23;98146.06;;;6.74
67515;BMP280;60646;55.802;37.032;2023-03-03T08:17:51;98152.59;;;6.79
67515;BMP280;60646;55.802;37.032;2023-03-03T08:22:58;98142.41;;;6.83
67515;BMP280;60646;55.802;37.032;2023-03-03T08:25:24;98144.81;;;6.81
67515;BMP280;60646;55.802;37.032;2023-03-03T08:27:49;98136.91;;;6.76
67515;BMP280;60646;55.802;37.032;2023-03-03T08:30:15;98140.00;;;6.85
67515;BMP280;60646;55.802;37.032;2023-03-03T08:32:41;98133.03;;;6.77
67515;BMP280;60646;55.802;37.032;2023-03-03T08:35:07;98133.75;;;6.77
67515;BMP280;60646;55.802;37.032;2023-03-03T08:37:33;98141.25;;;6.79
67515;BMP280;60646;55.802;37.032;2023-03-03T08:39:59;98149.66;;;6.88
67515;BMP280;60646;55.802;37.032;2023-03-03T08:42:24;98157.56;;;6.94
67515;BMP280;60646;55.802;37.032;2023-03-03T08:45:09;98155.88;;;6.96
67515;BMP280;60646;55.802;37.032;2023-03-03T08:47:34;98145.53;;;6.87
67515;BMP280;60646;55.802;37.032;2023-03-03T08:50:00;98160.91;;;7.05
67515;BMP280;60646;55.802;37.032;2023-03-03T08:52:26;98145.97;;;6.97
67515;BMP280;60646;55.802;37.032;2023-03-03T08:54:51;98150.75;;;7.04
67515;BMP280;60646;55.802;37.032;2023-03-03T08:57:17;98140.16;;;7.04
67515;BMP280;60646;55.802;37.032;2023-03-03T08:59:43;98147.34;;;7.09
67515;BMP280;60646;55.802;37.032;2023-03-03T09:02:09;98157.25;;;7.08
67515;BMP280;60646;55.802;37.032;2023-03-03T09:04:35;98168.09;;;7.16
67515;BMP280;60646;55.802;37.032;2023-03-03T09:07:01;98159.41;;;7.15
67515;BMP280;60646;55.802;37.032;2023-03-03T09:09:27;98143.75;;;7.06
67515;BMP280;60646;55.802;37.032;2023-03-03T09:11:58;98166.34;;;7.18
67515;BMP280;60646;55.802;37.032;2023-03-03T09:14:27;98149.06;;;7.06
67515;BMP280;60646;55.802;37.032;2023-03-03T09:16:54;98163.25;;;7.14
67515;BMP280;60646;55.802;37.032;2023-03-03T09:21:50;98161.06;;;7.18
67515;BMP280;60646;55.802;37.032;2023-03-03T09:24:40;98170.47;;;7.19
67515;BMP280;60646;55.802;37.032;2023-03-03T09:27:17;98151.94;;;7.08
67515;BMP280;60646;55.802;37.032;2023-03-03T09:29:43;98170.03;;;7.15
67515;BMP280;60646;55.802;37.032;2023-03-03T09:32:34;98170.94;;;7.18
67515;BMP280;60646;55.802;37.032;2023-03-03T09:35:49;98179.88;;;7.20
67515;BMP280;60646;55.802;37.032;2023-03-03T09:49:30;98169.72;;;7.24
67515;BMP280;60646;55.802;37.032;2023-03-03T09:53:15;98171.63;;;7.30
67515;BMP280;60646;55.802;37.032;2023-03-03T10:11:49;98161.38;;;7.45
67515;BMP280;60646;55.802;37.032;2023-03-03T10:22:30;98163.03;;;7.53
67515;BMP280;60646;55.802;37.032;2023-03-03T10:25:06;98143.91;;;7.55
67515;BMP280;60646;55.802;37.032;2023-03-03T10:30:12;98150.63;;;7.67
67515;BMP280;60646;55.802;37.032;2023-03-03T10:32:50;98152.50;;;7.72
67515;BMP280;60646;55.802;37.032;2023-03-03T10:38:04;98156.72;;;7.86
67515;BMP280;60646;55.802;37.032;2023-03-03T10:44:07;98158.53;;;8.02
67515;BMP280;60646;55.802;37.032;2023-03-03T10:46:49;98161.66;;;8.06
67515;BMP280;60646;55.802;37.032;2023-03-03T10:49:59;98156.75;;;8.10
67515;BMP280;60646;55.802;37.032;2023-03-03T10:55:19;98166.19;;;8.11
67515;BMP280;60646;55.802;37.032;2023-03-03T11:03:41;98172.03;;;8.04
67515;BMP280;60646;55.802;37.032;2023-03-03T11:08:42;98172.03;;;8.04
67515;BMP280;60646;55.802;37.032;2023-03-03T11:30:52;98173.44;;;8.11
67515;BMP280;60646;55.802;37.032;2023-03-03T11:33:31;98179.22;;;8.09
67515;BMP280;60646;55.802;37.032;2023-03-03T11:36:17;98174.38;;;8.13
67515;BMP280;60646;55.802;37.032;2023-03-03T11:39:13;98176.53;;;8.15
67515;BMP280;60646;55.802;37.032;2023-03-03T11:45:02;98175.50;;;8.18
67515;BMP280;60646;55.802;37.032;2023-03-03T11:47:57;98171.22;;;8.15
67515;BMP280;60646;55.802;37.032;2023-03-03T11:50:30;98174.78;;;8.17
67515;BMP280;60646;55.802;37.032;2023-03-03T11:53:23;98176.25;;;8.18
67515;BMP280;60646;55.802;37.032;2023-03-03T12:01:41;98170.44;;;8.20
67515;BMP280;60646;55.802;37.032;2023-03-03T12:04:14;98177.16;;;8.26
67515;BMP280;60646;55.802;37.032;2023-03-03T12:12:05;98184.34;;;8.31
67515;BMP280;60646;55.802;37.032;2023-03-03T12:14:38;98184.34;;;8.31
67515;BMP280;60646;55.802;37.032;2023-03-03T12:25:50;98175.16;;;8.32
67515;BMP280;60646;55.802;37.032;2023-03-03T12:28:35;98152.56;;;8.20
67515;BMP280;60646;55.802;37.032;2023-03-03T12:31:28;98167.41;;;8.35
67515;BMP280;60646;55.802;37.032;2023-03-03T12:34:10;98169.16;;;8.26
67515;BMP280;60646;55.802;37.032;2023-03-03T12:36:58;98167.97;;;8.27
67515;BMP280;60646;55.802;37.032;2023-03-03T12:48:08;98168.50;;;8.20
67515;BMP280;60646;55.802;37.032;2023-03-03T12:51:01;98174.03;;;8.22
67515;BMP280;60646;55.802;37.032;2023-03-03T12:56:11;98164.50;;;8.08
67515;BMP280;60646;55.802;37.032;2023-03-03T12:59:07;98177.44;;;8.17
67515;BMP280;60646;55.802;37.032;2023-03-03T13:04:22;98172.38;;;8.19
67515;BMP280;60646;55.802;37.032;2023-03-03T13:07:03;98162.28;;;8.12
67515;BMP280;60646;55.802;37.032;2023-03-03T13:09:48;98170.94;;;8.18
67515;BMP280;60646;55.802;37.032;2023-03-03T13:17:41;98148.50;;;8.14
67515;BMP280;60646;55.802;37.032;2023-03-03T13:22:56;98141.66;;;8.18
67515;BMP280;60646;55.802;37.032;2023-03-03T13:25:38;98143.34;;;8.21
67515;BMP280;60646;55.802;37.032;2023-03-03T13:28:35;98146.47;;;8.25
67515;BMP280;60646;55.802;37.032;2023-03-03T13:31:14;98168.50;;;8.45
67515;BMP280;60646;55.802;37.032;2023-03-03T13:33:55;98142.28;;;8.30
67515;BMP280;60646;55.802;37.032;2023-03-03T13:36:29;98148.44;;;8.44
67515;BMP280;60646;55.802;37.032;2023-03-03T13:39:02;98158.94;;;8.55
67515;BMP280;60646;55.802;37.032;2023-03-03T13:41:39;98153.19;;;8.51
67515;BMP280;60646;55.802;37.032;2023-03-03T13:44:19;98159.38;;;8.59
67515;BMP280;60646;55.802;37.032;2023-03-03T13:49:31;98167.16;;;8.57
67515;BMP280;60646;55.802;37.032;2023-03-03T13:52:09;98165.47;;;8.54
67515;BMP280;60646;55.802;37.032;2023-03-03T13:55:04;98170.81;;;8.54
67515;BMP280;60646;55.802;37.032;2023-03-03T14:05:38;98158.84;;;8.17
67515;BMP280;60646;55.802;37.032;2023-03-03T14:08:17;98119.97;;;7.90
67515;BMP280;60646;55.802;37.032;2023-03-03T14:13:56;98180.41;;;8.14
67515;BMP280;60646;55.802;37.032;2023-03-03T14:16:51;98173.44;;;8.11
67515;BMP280;60646;55.802;37.032;2023-03-03T14:19:27;98170.13;;;7.99
67515;BMP280;60646;55.802;37.032;2023-03-03T14:30:26;98165.38;;;7.92
67515;BMP280;60646;55.802;37.032;2023-03-03T14:40:34;98150.84;;;7.69
67515;BMP280;60646;55.802;37.032;2023-03-03T14:43:17;98168.13;;;7.81
67515;BMP280;60646;55.802;37.032;2023-03-03T14:45:44;98151.81;;;7.66
67515;BMP280;60646;55.802;37.032;2023-03-03T14:50:46;98162.34;;;7.77
67515;BMP280;60646;55.802;37.032;2023-03-03T14:53:42;98158.81;;;7.69
67515;BMP280;60646;55.802;37.032;2023-03-03T15:04:43;98171.88;;;7.67
67515;BMP280;60646;55.802;37.032;2023-03-03T15:09:48;98165.16;;;7.55
67515;BMP280;60646;55.802;37.032;2023-03-03T15:14:52;98148.81;;;7.45
67515;BMP280;60646;55.802;37.032;2023-03-03T15:17:28;98182.25;;;7.65
67515;BMP280;60646;55.802;37.032;2023-03-03T15:22:38;98181.56;;;7.59
67515;BMP280;60646;55.802;37.032;2023-03-03T15:25:32;98180.84;;;7.58
67515;BMP280;60646;55.802;37.032;2023-03-03T15:28:15;98183.28;;;7.56
67515;BMP280;60646;55.802;37.032;2023-03-03T15:30:52;98180.91;;;7.53
67515;BMP280;60646;55.802;37.032;2023-03-03T15:35:56;98184.31;;;7.48
67515;BMP280;60646;55.802;37.032;2023-03-03T15:38:30;98168.22;;;7.35
67515;BMP280;60646;55.802;37.032;2023-03-03T15:41:44;98180.47;;;7.43
67515;BMP280;60646;55.802;37.032;2023-03-03T15:44:21;98186.50;;;7.44
67515;BMP280;60646;55.802;37.032;2023-03-03T15:52:19;98164.88;;;7.29
67515;BMP280;60646;55.802;37.032;2023-03-03T16:00:55;98189.22;;;7.33
67515;BMP280;60646;55.802;37.032;2023-03-03T16:03:46;98183.47;;;7.29
67515;BMP280;60646;55.802;37.032;2023-03-03T16:06:22;98167.13;;;7.13
67515;BMP280;60646;55.802;37.032;2023-03-03T16:09:02;98186.38;;;7.25
67515;BMP280;60646;55.802;37.032;2023-03-03T16:11:53;98184.22;;;7.23
67515;BMP280;60646;55.802;37.032;2023-03-03T16:22:38;98163.09;;;7.01
67515;BMP280;60646;55.802;37.032;2023-03-03T16:25:33;98178.47;;;7.08
67515;BMP280;60646;55.802;37.032;2023-03-03T16:28:46;98168.91;;;6.94
67515;BMP280;60646;55.802;37.032;2023-03-03T16:34:36;98186.03;;;6.99
67515;BMP280;60646;55.802;37.032;2023-03-03T16:37:15;98184.09;;;6.94
67515;BMP280;60646;55.802;37.032;2023-03-03T16:40:02;98177.38;;;6.93
67515;BMP280;60646;55.802;37.032;2023-03-03T16:42:33;98172.59;;;6.80
67515;BMP280;60646;55.802;37.032;2023-03-03T16:52:50;98173.34;;;6.75
67515;BMP280;60646;55.802;37.032;2023-03-03T16:55:20;98188.72;;;6.82
67515;BMP280;60646;55.802;37.032;2023-03-03T17:00:48;98172.59;;;6.69
67515;BMP280;60646;55.802;37.032;2023-03-03T17:03:32;98179.13;;;6.79
67515;BMP280;60646;55.802;37.032;2023-03-03T17:06:09;98184.91;;;6.78
67515;BMP280;60646;55.802;37.032;2023-03-03T17:11:29;98192.84;;;6.78
67515;BMP280;60646;55.802;37.032;2023-03-03T17:16:57;98196.22;;;6.72
67515;BMP280;60646;55.802;37.032;2023-03-03T17:22:46;98192.38;;;6.68
67515;BMP280;60646;55.802;37.032;2023-03-03T17:25:23;98180.13;;;6.59
67515;BMP280;60646;55.802;37.032;2023-03-03T17:30:44;98166.66;;;6.46
67515;BMP280;60646;55.802;37.032;2023-03-03T17:41:32;98191.25;;;6.47
67515;BMP280;60646;55.802;37.032;2023-03-03T17:47:06;98185.00;;;6.39
67515;BMP280;60646;55.802;37.032;2023-03-03T17:53:12;98167.16;;;6.22
67515;BMP280;60646;55.802;37.032;2023-03-03T17:55:55;98186.94;;;6.27
67515;BMP280;60646;55.802;37.032;2023-03-03T18:09:30;98193.44;;;6.04
67515;BMP280;60646;55.802;37.032;2023-03-03T18:12:22;98188.66;;;5.97
67515;BMP280;60646;55.802;37.032;2023-03-03T18:14:58;98188.63;;;5.91
67515;BMP280;60646;55.802;37.032;2023-03-03T18:23:43;98174.88;;;5.65
67515;BMP280;60646;55.802;37.032;2023-03-03T18:26:28;98189.31;;;5.64
67515;BMP280;60646;55.802;37.032;2023-03-03T18:29:16;98195.09;;;5.57
67515;BMP280;60646;55.802;37.032;2023-03-03T18:48:14;98167.53;;;5.10
67515;BMP280;60646;55.802;37.032;2023-03-03T18:53:29;98193.56;;;5.22
67515;BMP280;60646;55.802;37.032;2023-03-03T18:55:57;98187.53;;;5.16
67515;BMP280;60646;55.802;37.032;2023-03-03T19:01:12;98191.09;;;5.13
67515;BMP280;60646;55.802;37.032;2023-03-03T19:03:54;98182.44;;;5.07
67515;BMP280;60646;55.802;37.032;2023-03-03T19:06:31;98158.53;;;4.91
67515;BMP280;60646;55.802;37.032;2023-03-03T19:08:58;98158.28;;;4.83
67515;BMP280;60646;55.802;37.032;2023-03-03T19:11:40;98179.06;;;5.01
67515;BMP280;60646;55.802;37.032;2023-03-03T19:16:42;98188.34;;;4.91
67515;BMP280;60646;55.802;37.032;2023-03-03T19:19:16;98178.25;;;4.84
67515;BMP280;60646;55.802;37.032;2023-03-03T19:21:47;98184.72;;;4.83
67515;BMP280;60646;55.802;37.032;2023-03-03T19:34:45;98190.41;;;4.65
67515;BMP280;60646;55.802;37.032;2023-03-03T19:37:41;98189.91;;;4.61
67515;BMP280;60646;55.802;37.032;2023-03-03T19:46:27;98182.91;;;4.52
67515;BMP280;60646;55.802;37.032;2023-03-03T19:52:13;98168.84;;;4.41
67515;BMP280;60646;55.802;37.032;2023-03-03T20:00:25;98172.53;;;4.49
67515;BMP280;60646;55.802;37.032;2023-03-03T20:06:42;98169.34;;;4.39
67515;BMP280;60646;55.802;37.032;2023-03-03T20:14:51;98152.66;;;4.22
67515;BMP280;60646;55.802;37.032;2023-03-03T20:20:23;98140.84;;;4.17
67515;BMP280;60646;55.802;37.032;2023-03-03T20:25:56;98148.06;;;4.22
67515;BMP280;60646;55.802;37.032;2023-03-03T20:29:00;98151.00;;;4.25
67515;BMP280;60646;55.802;37.032;2023-03-03T20:34:14;98145.19;;;4.20